createdAt,value
2018-09-18T00:00:54.625Z,99.50
2018-09-18T00:03:23.461Z,99.20
2018-09-18T00:05:52.199Z,99.80
2018-09-18T00:08:20.679Z,99.90
2018-09-18T00:10:49.419Z,99.90
2018-09-18T00:13:17.943Z,99.90
2018-09-18T00:15:46.690Z,99.90
2018-09-18T00:18:15.334Z,99.90
2018-09-18T00:20:43.843Z,99.90
2018-09-18T00:23:12.590Z,99.90
2018-09-18T00:25:41.315Z,99.90
2018-09-18T00:28:09.810Z,99.90
2018-09-18T00:30:38.992Z,99.90
2018-09-18T00:33:07.575Z,99.90
2018-09-18T00:35:36.088Z,99.90
2018-09-18T00:38:04.891Z,99.90
2018-09-18T00:40:33.330Z,99.90
2018-09-18T00:43:02.104Z,99.90
2018-09-18T00:45:30.869Z,99.90
2018-09-18T00:47:59.354Z,99.90
2018-09-18T00:50:27.784Z,99.90
2018-09-18T00:52:56.255Z,99.90
2018-09-18T00:55:24.686Z,99.90
2018-09-18T00:57:53.143Z,99.90
2018-09-18T01:00:21.930Z,99.90
2018-09-18T01:02:50.656Z,99.90
2018-09-18T01:05:19.208Z,99.90
2018-09-18T01:07:47.919Z,99.90
2018-09-18T01:10:16.630Z,99.90
2018-09-18T01:12:45.304Z,99.90
2018-09-18T01:15:13.832Z,99.90
2018-09-18T01:17:42.338Z,99.90
2018-09-18T01:20:10.817Z,99.90
2018-09-18T01:22:39.274Z,99.90
2018-09-18T01:25:08.141Z,99.90
2018-09-18T01:27:36.903Z,99.90
2018-09-18T01:30:05.462Z,99.90
2018-09-18T01:32:34.416Z,99.90
2018-09-18T01:35:02.873Z,99.90
2018-09-18T01:37:31.313Z,99.90
2018-09-18T01:40:00.448Z,99.90
2018-09-18T01:42:29.195Z,99.90
2018-09-18T01:44:57.663Z,99.90
2018-09-18T01:47:26.123Z,99.90
2018-09-18T01:49:54.658Z,99.90
2018-09-18T01:52:23.727Z,99.90
2018-09-18T01:54:52.493Z,99.90
2018-09-18T01:57:20.971Z,99.90
2018-09-18T01:59:50.467Z,99.90
2018-09-18T02:02:18.905Z,99.90
2018-09-18T02:04:47.722Z,99.90
2018-09-18T02:07:16.808Z,99.90
2018-09-18T02:09:45.554Z,99.90
2018-09-18T02:12:13.987Z,99.90
2018-09-18T02:14:43.030Z,99.90
2018-09-18T02:17:11.771Z,99.90
2018-09-18T02:19:40.904Z,99.90
2018-09-18T02:22:09.478Z,99.90
2018-09-18T02:24:37.998Z,99.90
2018-09-18T02:27:06.799Z,99.90
2018-09-18T02:29:35.571Z,99.90
2018-09-18T02:32:04.473Z,99.90
2018-09-18T02:34:33.558Z,99.90
2018-09-18T02:37:02.043Z,99.90
2018-09-18T02:39:30.479Z,99.90
2018-09-18T02:41:58.943Z,99.90
2018-09-18T02:44:27.387Z,99.90
2018-09-18T02:46:55.858Z,99.90
2018-09-18T02:49:24.572Z,99.90
2018-09-18T02:51:53.329Z,99.90
2018-09-18T02:54:21.775Z,99.90
2018-09-18T02:56:50.860Z,99.90
2018-09-18T02:59:19.432Z,99.90
2018-09-18T03:01:47.896Z,99.90
2018-09-18T03:04:16.324Z,99.90
2018-09-18T03:06:45.307Z,99.90
2018-09-18T03:09:13.743Z,99.90
2018-09-18T03:11:42.207Z,99.90
2018-09-18T03:14:10.635Z,99.90
2018-09-18T03:16:39.383Z,99.90
2018-09-18T03:19:08.170Z,99.90
2018-09-18T03:21:36.898Z,99.90
2018-09-18T03:24:05.737Z,99.90
2018-09-18T03:26:34.213Z,99.90
2018-09-18T03:29:02.922Z,99.90
2018-09-18T03:31:31.432Z,99.90
2018-09-18T03:33:59.873Z,99.90
2018-09-18T03:36:28.386Z,99.90
2018-09-18T03:38:56.911Z,99.90
2018-09-18T03:41:25.398Z,99.90
2018-09-18T03:43:54.127Z,99.90
2018-09-18T03:46:22.625Z,99.90
2018-09-18T03:48:51.939Z,99.90
2018-09-18T03:51:20.688Z,99.90
2018-09-18T03:53:49.175Z,99.90
2018-09-18T03:56:17.947Z,99.90
2018-09-18T03:58:46.735Z,99.90
2018-09-18T04:01:15.477Z,99.90
2018-09-18T04:03:44.125Z,99.90
2018-09-18T04:06:12.619Z,99.90
2018-09-18T04:08:41.108Z,99.90
2018-09-18T04:11:09.639Z,99.90
2018-09-18T04:13:38.675Z,99.90
2018-09-18T04:16:07.823Z,99.90
2018-09-18T04:18:36.317Z,99.90
2018-09-18T04:21:05.097Z,99.90
2018-09-18T04:23:33.571Z,99.90
2018-09-18T04:26:02.302Z,99.90
2018-09-18T04:28:31.003Z,99.90
2018-09-18T04:30:59.508Z,99.90
2018-09-18T04:33:28.000Z,99.90
2018-09-18T04:35:56.984Z,99.90
2018-09-18T04:38:25.443Z,99.90
2018-09-18T04:40:53.920Z,99.90
2018-09-18T04:43:22.404Z,99.90
2018-09-18T04:45:50.912Z,99.90
2018-09-18T04:48:19.374Z,99.90
2018-09-18T04:50:48.466Z,99.90
2018-09-18T04:53:16.940Z,99.90
2018-09-18T04:55:45.617Z,99.90
2018-09-18T04:58:14.695Z,99.90
2018-09-18T05:00:43.156Z,99.90
2018-09-18T05:03:11.943Z,99.90
2018-09-18T05:05:40.424Z,99.90
2018-09-18T05:08:08.903Z,99.90
2018-09-18T05:10:37.384Z,99.90
2018-09-18T05:13:05.863Z,99.90
2018-09-18T05:15:34.630Z,99.90
2018-09-18T05:18:03.429Z,99.90
2018-09-18T05:20:32.149Z,99.90
2018-09-18T05:23:00.997Z,99.90
2018-09-18T05:25:29.769Z,99.90
2018-09-18T05:27:58.580Z,99.90
2018-09-18T05:30:27.297Z,99.90
2018-09-18T05:32:55.760Z,99.90
2018-09-18T05:35:24.190Z,99.90
2018-09-18T05:37:53.003Z,99.90
2018-09-18T05:40:21.466Z,99.90
2018-09-18T05:42:49.948Z,99.90
2018-09-18T05:45:18.984Z,99.90
2018-09-18T05:47:47.969Z,99.90
2018-09-18T05:50:16.703Z,99.90
2018-09-18T05:52:45.442Z,99.90
2018-09-18T05:55:13.892Z,99.90
2018-09-18T05:57:42.399Z,99.90
2018-09-18T06:00:11.399Z,99.90
2018-09-18T06:02:40.404Z,99.90
2018-09-18T06:05:09.259Z,99.90
2018-09-18T06:07:38.130Z,99.90
2018-09-18T06:10:07.134Z,99.90
2018-09-18T06:12:35.633Z,99.90
2018-09-18T06:15:04.165Z,99.90
2018-09-18T06:17:32.838Z,99.90
2018-09-18T06:20:01.676Z,99.90
2018-09-18T06:22:30.121Z,99.90
2018-09-18T06:24:59.169Z,99.90
2018-09-18T06:27:27.662Z,99.90
2018-09-18T06:29:56.473Z,99.90
2018-09-18T06:32:24.936Z,99.90
2018-09-18T06:34:53.412Z,99.90
2018-09-18T06:37:21.855Z,99.90
2018-09-18T06:39:50.324Z,99.90
2018-09-18T06:42:18.785Z,99.90
2018-09-18T06:44:48.066Z,99.90
2018-09-18T06:47:17.553Z,99.90
2018-09-18T06:49:46.684Z,99.90
2018-09-18T06:52:15.371Z,99.90
2018-09-18T06:54:44.372Z,99.90
2018-09-18T06:57:12.799Z,99.90
2018-09-18T06:59:41.264Z,99.90
2018-09-18T07:02:09.740Z,99.90
2018-09-18T07:04:38.536Z,99.90
2018-09-18T07:07:06.974Z,99.90
2018-09-18T07:09:35.458Z,99.90
2018-09-18T07:12:03.932Z,99.90
2018-09-18T07:14:32.907Z,99.90
2018-09-18T07:17:01.888Z,99.90
2018-09-18T07:19:30.993Z,99.90
2018-09-18T07:21:59.485Z,99.90
2018-09-18T07:24:27.959Z,99.90
2018-09-18T07:26:56.408Z,99.90
2018-09-18T07:29:24.921Z,99.90
2018-09-18T07:31:53.415Z,99.90
2018-09-18T07:34:22.174Z,99.90
2018-09-18T07:36:50.995Z,99.90
2018-09-18T07:39:19.790Z,99.90
2018-09-18T07:41:48.624Z,99.90
2018-09-18T07:44:17.082Z,99.90
2018-09-18T07:46:51.987Z,99.90
2018-09-18T07:49:21.056Z,99.90
2018-09-18T07:51:49.874Z,99.90
2018-09-18T07:54:18.318Z,99.90
2018-09-18T07:56:46.821Z,99.90
2018-09-18T07:59:15.324Z,99.90
2018-09-18T08:01:44.132Z,99.90
2018-09-18T08:04:12.618Z,99.90
2018-09-18T08:06:41.610Z,99.90
2018-09-18T08:09:11.053Z,99.90
2018-09-18T08:11:39.607Z,99.10
2018-09-18T08:14:08.311Z,98.70
2018-09-18T08:16:36.824Z,98.40
2018-09-18T08:19:06.037Z,98.20
2018-09-18T08:21:34.524Z,97.90
2018-09-18T08:24:03.454Z,97.50
2018-09-18T08:26:31.943Z,97.30
2018-09-18T08:29:00.723Z,96.30
2018-09-18T08:31:29.459Z,96.00
2018-09-18T08:33:57.904Z,95.70
2018-09-18T08:36:26.679Z,95.80
2018-09-18T08:38:55.165Z,95.40
2018-09-18T08:41:24.165Z,94.70
2018-09-18T08:43:52.672Z,95.00
2018-09-18T08:46:21.763Z,94.00
2018-09-18T08:48:55.306Z,93.80
2018-09-18T08:51:23.795Z,93.10
2018-09-18T08:53:52.563Z,92.90
2018-09-18T08:56:21.372Z,93.90
2018-09-18T08:58:50.563Z,93.10
2018-09-18T09:01:19.599Z,93.30
2018-09-18T09:03:48.109Z,92.10
2018-09-18T09:06:16.523Z,92.50
2018-09-18T09:08:45.094Z,91.90
2018-09-18T09:11:13.722Z,91.50
2018-09-18T09:13:42.217Z,91.40
2018-09-18T09:16:10.694Z,91.40
2018-09-18T09:18:39.282Z,90.80
2018-09-18T09:21:07.754Z,90.30
2018-09-18T09:23:36.157Z,90.60
2018-09-18T09:26:04.643Z,90.30
2018-09-18T09:28:33.157Z,90.60
2018-09-18T09:31:02.193Z,90.20
2018-09-18T09:33:30.945Z,89.60
2018-09-18T09:35:59.503Z,88.50
2018-09-18T09:38:27.969Z,89.30
2018-09-18T09:40:56.744Z,87.40
2018-09-18T09:43:25.479Z,88.30
2018-09-18T09:45:54.253Z,85.70
2018-09-18T09:48:22.740Z,84.60
2018-09-18T09:50:51.212Z,85.50
2018-09-18T09:53:19.688Z,85.50
2018-09-18T09:55:48.142Z,85.70
2018-09-18T09:58:16.590Z,84.40
2018-09-18T10:00:50.991Z,84.50
2018-09-18T10:03:19.468Z,84.10
2018-09-18T10:05:48.159Z,84.20
2018-09-18T10:08:16.626Z,84.10
2018-09-18T10:10:45.517Z,82.90
2018-09-18T10:13:13.907Z,83.70
2018-09-18T10:15:42.437Z,84.20
2018-09-18T10:18:10.958Z,83.50
2018-09-18T10:20:39.642Z,84.00
2018-09-18T10:23:08.146Z,85.30
2018-09-18T10:25:36.561Z,84.20
2018-09-18T10:28:05.378Z,84.10
2018-09-18T10:30:33.901Z,84.50
2018-09-18T10:33:02.610Z,85.90
2018-09-18T10:35:31.128Z,85.40
2018-09-18T10:37:59.643Z,85.30
2018-09-18T10:40:28.108Z,84.70
2018-09-18T10:42:56.647Z,85.10
2018-09-18T10:45:25.131Z,83.90
2018-09-18T10:47:54.100Z,84.00
2018-09-18T10:50:22.568Z,83.30
2018-09-18T10:52:51.032Z,82.80
2018-09-18T10:55:20.048Z,82.70
2018-09-18T10:57:48.639Z,82.00
2018-09-18T11:00:17.158Z,82.30
2018-09-18T11:02:45.927Z,82.40
2018-09-18T11:05:14.677Z,81.40
2018-09-18T11:07:43.547Z,80.80
2018-09-18T11:10:11.992Z,79.80
2018-09-18T11:12:40.793Z,80.30
2018-09-18T11:15:09.342Z,80.10
2018-09-18T11:17:37.825Z,81.10
2018-09-18T11:20:06.300Z,79.50
2018-09-18T11:22:34.759Z,79.40
2018-09-18T11:25:03.314Z,78.10
2018-09-18T11:27:31.891Z,78.60
2018-09-18T11:30:00.377Z,77.20
2018-09-18T11:32:28.918Z,77.40
2018-09-18T11:34:58.159Z,77.20
2018-09-18T11:37:26.646Z,77.30
2018-09-18T11:39:55.383Z,75.90
2018-09-18T11:42:24.141Z,74.90
2018-09-18T11:44:52.624Z,74.20
2018-09-18T11:47:27.682Z,74.20
2018-09-18T11:49:56.469Z,75.60
2018-09-18T11:52:25.197Z,75.10
2018-09-18T11:54:53.972Z,74.60
2018-09-18T11:57:22.699Z,72.80
2018-09-18T11:59:51.172Z,73.10
2018-09-18T12:02:19.655Z,74.60
2018-09-18T12:04:48.316Z,73.60
2018-09-18T12:07:16.599Z,73.10
2018-09-18T12:09:45.379Z,72.30
2018-09-18T12:12:13.839Z,71.40
2018-09-18T12:14:42.312Z,68.90
2018-09-18T12:17:10.783Z,70.00
2018-09-18T12:19:39.747Z,69.50
2018-09-18T12:22:08.250Z,67.90
2018-09-18T12:24:36.683Z,67.70
2018-09-18T12:27:05.155Z,67.70
2018-09-18T12:29:33.636Z,67.10
2018-09-18T12:32:02.139Z,66.70
2018-09-18T12:34:30.647Z,66.20
2018-09-18T12:36:59.133Z,65.90
2018-09-18T12:39:27.638Z,65.10
2018-09-18T12:41:56.209Z,66.10
2018-09-18T12:44:25.474Z,67.10
2018-09-18T12:46:53.975Z,66.00
2018-09-18T12:49:22.524Z,66.30
2018-09-18T12:51:51.036Z,64.90
2018-09-18T12:54:20.065Z,64.60
2018-09-18T12:56:48.680Z,65.10
2018-09-18T12:59:17.441Z,65.10
2018-09-18T13:01:46.267Z,65.50
2018-09-18T13:04:14.763Z,66.20
2018-09-18T13:06:43.598Z,65.20
2018-09-18T13:09:13.936Z,64.80
2018-09-18T13:11:42.722Z,65.30
2018-09-18T13:14:11.703Z,65.20
2018-09-18T13:16:40.046Z,65.20
2018-09-18T13:19:08.591Z,64.80
2018-09-18T13:21:37.326Z,64.50
2018-09-18T13:24:05.810Z,64.70
2018-09-18T13:26:34.289Z,63.70
2018-09-18T13:29:02.816Z,64.30
2018-09-18T13:31:31.999Z,65.20
2018-09-18T13:34:00.490Z,65.30
2018-09-18T13:36:29.134Z,64.40
2018-09-18T13:38:57.539Z,64.60
2018-09-18T13:41:26.571Z,65.30
2018-09-18T13:43:55.014Z,65.40
2018-09-18T13:46:23.552Z,65.90
2018-09-18T13:48:52.627Z,65.50
2018-09-18T13:51:21.559Z,65.50
2018-09-18T13:53:50.318Z,66.80
2018-09-18T13:56:18.901Z,67.00
2018-09-18T13:58:47.324Z,66.40
2018-09-18T14:01:16.232Z,66.60
2018-09-18T14:03:44.961Z,67.00
2018-09-18T14:06:13.456Z,65.90
2018-09-18T14:08:42.184Z,65.60
2018-09-18T14:11:11.005Z,65.70
2018-09-18T14:13:39.487Z,67.30
2018-09-18T14:16:08.267Z,66.70
2018-09-18T14:18:36.779Z,67.40
2018-09-18T14:21:05.274Z,66.70
2018-09-18T14:23:33.723Z,67.60
2018-09-18T14:26:02.248Z,68.10
2018-09-18T14:28:31.037Z,66.80
2018-09-18T14:30:59.524Z,66.50
2018-09-18T14:33:28.033Z,66.80
2018-09-18T14:35:56.538Z,67.00
2018-09-18T14:38:25.167Z,68.10
2018-09-18T14:40:53.624Z,67.10
2018-09-18T14:43:22.080Z,67.10
2018-09-18T14:45:50.575Z,67.50
2018-09-18T14:48:19.058Z,68.10
2018-09-18T14:50:47.785Z,68.10
2018-09-18T14:53:16.811Z,68.60
2018-09-18T14:55:45.323Z,69.30
2018-09-18T14:58:14.090Z,69.30
2018-09-18T15:00:42.564Z,69.80
2018-09-18T15:03:11.646Z,70.20
2018-09-18T15:05:40.063Z,71.10
2018-09-18T15:08:08.550Z,70.20
2018-09-18T15:10:37.320Z,71.10
2018-09-18T15:13:05.951Z,71.00
2018-09-18T15:15:34.449Z,71.00
2018-09-18T15:18:03.581Z,70.50
2018-09-18T15:20:32.335Z,70.80
2018-09-18T15:23:00.807Z,71.30
2018-09-18T15:25:29.565Z,71.90
2018-09-18T15:27:58.361Z,71.30
2018-09-18T15:30:26.838Z,71.80
2018-09-18T15:32:55.710Z,72.10
2018-09-18T15:35:25.115Z,71.70
2018-09-18T15:37:53.610Z,72.40
2018-09-18T15:40:35.463Z,72.20
2018-09-18T15:43:04.060Z,72.00
2018-09-18T15:45:32.626Z,72.60
2018-09-18T15:48:01.123Z,72.80
2018-09-18T15:50:29.562Z,73.20
2018-09-18T15:52:58.031Z,73.40
2018-09-18T15:55:26.644Z,73.30
2018-09-18T15:57:55.100Z,73.00
2018-09-18T16:00:23.542Z,72.80
2018-09-18T16:02:52.022Z,73.40
2018-09-18T16:05:20.544Z,73.50
2018-09-18T16:07:49.023Z,73.40
2018-09-18T16:10:17.458Z,74.50
2018-09-18T16:12:46.512Z,73.60
2018-09-18T16:15:14.995Z,74.10
2018-09-18T16:17:43.520Z,74.20
2018-09-18T16:20:11.985Z,74.30
2018-09-18T16:22:40.505Z,74.30
2018-09-18T16:25:08.997Z,74.60
2018-09-18T16:27:37.457Z,74.30
2018-09-18T16:30:06.136Z,74.40
2018-09-18T16:32:34.569Z,74.20
2018-09-18T16:35:03.065Z,74.50
2018-09-18T16:37:31.554Z,74.40
2018-09-18T16:40:00.039Z,74.70
2018-09-18T16:42:28.494Z,74.40
2018-09-18T16:44:56.961Z,73.80
2018-09-18T16:47:25.451Z,73.90
2018-09-18T16:49:54.090Z,73.70
2018-09-18T16:52:22.566Z,74.10
2018-09-18T16:54:51.062Z,74.20
2018-09-18T16:57:19.426Z,74.00
2018-09-18T16:59:47.890Z,73.80
2018-09-18T17:02:16.393Z,74.00
2018-09-18T17:04:44.795Z,74.30
2018-09-18T17:07:13.267Z,74.30
2018-09-18T17:09:41.683Z,74.70
2018-09-18T17:12:10.196Z,74.70
2018-09-18T17:14:38.630Z,75.00
2018-09-18T17:17:07.111Z,75.30
2018-09-18T17:19:35.599Z,75.50
2018-09-18T17:22:04.027Z,76.30
2018-09-18T17:24:32.550Z,76.00
2018-09-18T17:27:01.161Z,76.00
2018-09-18T17:29:29.573Z,76.70
2018-09-18T17:31:58.051Z,77.40
2018-09-18T17:34:26.521Z,77.70
2018-09-18T17:36:55.351Z,77.90
2018-09-18T17:39:23.785Z,78.20
2018-09-18T17:41:52.319Z,78.80
2018-09-18T17:44:20.791Z,80.30
2018-09-18T17:46:56.402Z,81.70
2018-09-18T17:49:24.950Z,82.00
2018-09-18T17:51:53.932Z,82.80
2018-09-18T17:54:22.433Z,83.40
2018-09-18T17:56:51.040Z,84.00
2018-09-18T17:59:19.571Z,84.30
2018-09-18T18:01:48.041Z,85.50
2018-09-18T18:04:16.479Z,86.40
2018-09-18T18:06:45.571Z,87.20
2018-09-18T18:09:14.268Z,87.20
2018-09-18T18:11:42.791Z,87.80
2018-09-18T18:14:11.222Z,88.20
2018-09-18T18:16:39.673Z,88.10
2018-09-18T18:19:08.133Z,88.70
2018-09-18T18:21:36.576Z,89.30
2018-09-18T18:24:05.057Z,89.30
2018-09-18T18:26:33.524Z,89.80
2018-09-18T18:29:02.211Z,89.50
2018-09-18T18:31:31.371Z,89.30
2018-09-18T18:33:59.799Z,88.30
2018-09-18T18:36:28.286Z,88.40
2018-09-18T18:38:56.741Z,88.50
2018-09-18T18:41:25.509Z,88.70
2018-09-18T18:43:53.942Z,89.00
2018-09-18T18:46:22.403Z,89.40
2018-09-18T18:48:51.587Z,89.30
2018-09-18T18:51:20.015Z,89.90
2018-09-18T18:53:48.540Z,90.30
2018-09-18T18:56:17.039Z,90.40
2018-09-18T18:58:45.485Z,91.00
2018-09-18T19:01:14.044Z,90.80
2018-09-18T19:03:43.346Z,90.80
2018-09-18T19:06:12.174Z,90.90
2018-09-18T19:08:42.015Z,91.00
2018-09-18T19:11:11.824Z,90.80
2018-09-18T19:13:41.646Z,90.50
2018-09-18T19:16:10.732Z,90.60
2018-09-18T19:18:39.652Z,90.90
2018-09-18T19:21:08.752Z,91.10
2018-09-18T19:23:38.072Z,91.10
2018-09-18T19:26:07.115Z,91.30
2018-09-18T19:28:36.821Z,91.70
2018-09-18T19:31:05.931Z,91.80
2018-09-18T19:33:34.403Z,92.00
2018-09-18T19:36:02.953Z,92.00
2018-09-18T19:38:31.380Z,92.20
2018-09-18T19:40:59.846Z,92.10
2018-09-18T19:43:28.364Z,92.20
2018-09-18T19:45:56.865Z,92.60
2018-09-18T19:48:25.556Z,92.70
2018-09-18T19:50:54.059Z,92.90
2018-09-18T19:53:22.489Z,93.00
2018-09-18T19:55:50.947Z,93.10
2018-09-18T19:58:22.300Z,93.20
2018-09-18T20:00:50.803Z,93.20
2018-09-18T20:03:19.263Z,93.30
2018-09-18T20:05:47.691Z,93.60
2018-09-18T20:08:16.135Z,93.70
2018-09-18T20:10:44.618Z,93.60
2018-09-18T20:13:13.046Z,93.70
2018-09-18T20:15:41.483Z,93.80
2018-09-18T20:18:09.940Z,94.00
2018-09-18T20:20:38.463Z,94.10
2018-09-18T20:23:06.963Z,94.30
2018-09-18T20:25:35.386Z,94.40
2018-09-18T20:28:03.883Z,94.40
2018-09-18T20:30:32.315Z,94.60
2018-09-18T20:33:01.011Z,94.10
2018-09-18T20:35:29.430Z,94.10
2018-09-18T20:37:57.936Z,94.40
2018-09-18T20:40:26.454Z,94.60
2018-09-18T20:42:54.922Z,94.90
2018-09-18T20:45:23.381Z,95.20
2018-09-18T20:47:51.862Z,95.70
2018-09-18T20:50:22.455Z,96.20
2018-09-18T20:52:52.357Z,96.20
2018-09-18T20:55:20.912Z,96.30
2018-09-18T20:57:49.400Z,96.50
2018-09-18T21:00:18.083Z,96.50
2018-09-18T21:02:46.731Z,96.40
2018-09-18T21:05:15.310Z,96.70
2018-09-18T21:07:43.786Z,96.90
2018-09-18T21:10:12.264Z,96.50
2018-09-18T21:12:40.710Z,97.00
2018-09-18T21:15:09.195Z,96.90
2018-09-18T21:17:37.616Z,97.00
2018-09-18T21:20:06.155Z,97.30
2018-09-18T21:22:34.593Z,97.60
2018-09-18T21:25:28.375Z,98.00
2018-09-18T21:27:56.786Z,98.60
2018-09-18T21:30:26.599Z,99.10
2018-09-18T21:32:55.015Z,98.90
2018-09-18T21:35:23.477Z,99.10
2018-09-18T21:37:51.916Z,99.30
2018-09-18T21:40:20.446Z,99.80
2018-09-18T21:42:48.859Z,99.90
2018-09-18T21:45:17.380Z,99.90
2018-09-18T21:47:45.835Z,99.90
2018-09-18T21:50:14.287Z,99.70
2018-09-18T21:52:42.706Z,99.80
2018-09-18T21:55:11.189Z,99.90
2018-09-18T21:57:39.605Z,99.90
2018-09-18T22:00:08.125Z,99.90
2018-09-18T22:02:36.646Z,99.90
2018-09-18T22:05:05.165Z,99.90
2018-09-18T22:07:33.602Z,99.90
2018-09-18T22:10:02.021Z,99.90
2018-09-18T22:12:30.521Z,99.90
2018-09-18T22:14:58.907Z,99.90
2018-09-18T22:17:27.354Z,99.90
2018-09-18T22:19:55.775Z,99.90
2018-09-18T22:22:24.291Z,99.90
2018-09-18T22:24:52.753Z,99.90
2018-09-18T22:27:21.233Z,99.90
2018-09-18T22:29:49.670Z,99.90
2018-09-18T22:32:18.110Z,99.90
2018-09-18T22:34:46.562Z,99.90
2018-09-18T22:37:15.035Z,99.90
2018-09-18T22:39:43.492Z,99.90
2018-09-18T22:42:12.006Z,99.90
2018-09-18T22:44:40.467Z,99.90
2018-09-18T22:47:08.949Z,99.90
2018-09-18T22:49:37.415Z,99.90
2018-09-18T22:52:06.207Z,99.90
2018-09-18T22:54:34.682Z,99.90
2018-09-18T22:57:03.133Z,99.90
2018-09-18T22:59:31.605Z,99.90
2018-09-18T23:02:00.007Z,99.90
2018-09-18T23:04:28.464Z,99.90
2018-09-18T23:06:56.931Z,99.90
2018-09-18T23:09:25.389Z,99.90
2018-09-18T23:11:53.956Z,99.90
2018-09-18T23:14:22.440Z,99.90
2018-09-18T23:16:50.883Z,99.90
2018-09-18T23:19:19.296Z,99.90
2018-09-18T23:21:47.785Z,99.90
2018-09-18T23:24:16.223Z,99.90
2018-09-18T23:26:44.704Z,99.90
2018-09-18T23:29:13.168Z,99.90
2018-09-18T23:31:41.699Z,99.90
2018-09-18T23:34:10.203Z,99.90
2018-09-18T23:36:38.621Z,99.90
2018-09-18T23:39:08.152Z,99.90
2018-09-18T23:41:36.802Z,99.90
2018-09-18T23:44:05.269Z,99.90
2018-09-18T23:46:33.737Z,99.90
2018-09-18T23:49:02.211Z,99.90
2018-09-18T23:51:30.926Z,99.90
2018-09-18T23:53:59.390Z,99.90
2018-09-18T23:56:27.831Z,99.90
2018-09-18T23:58:56.278Z,99.90
